Time;durP1;ratioP1;P1;durP2;ratioP2;P2;SDS_P1;SDS_P2;PMS_P1;PMS_P2;Temp;Humidity;BMP_temperature;BMP_pressure;BME280_temperature;BME280_humidity;BME280_pressure;Samples;Min_cycle;Max_cycle;Signal;HPM_P1;HPM_P2
2024/02/17 06:00:22;;;;;;;41.60;18.23;;;;;;;;;;6150877;22;20691;-74
2024/02/17 06:02:48;;;;;;;47.67;20.27;;;;;;;;;;5015184;28;20500;-74
2024/02/17 06:05:14;;;;;;;43.47;17.93;;;;;;;;;;5015328;28;20398;-74
2024/02/17 06:07:40;;;;;;;50.93;18.80;;;;;;;;;;5015522;28;20446;-74
2024/02/17 06:10:06;;;;;;;41.40;19.10;;;;;;;;;;5017152;28;20410;-74
2024/02/17 06:12:32;;;;;;;45.20;19.93;;;;;;;;;;5020133;28;20434;-74
2024/02/17 06:14:58;;;;;;;58.20;21.70;;;;;;;;;;5015011;28;20414;-76
2024/02/17 06:17:27;;;;;;;52.73;22.83;;;;;;;;;;5015296;28;20414;-74
2024/02/17 06:22:37;;;;;;;55.67;20.87;;;;;;;;;;5015360;28;20445;-74
2024/02/17 06:25:04;;;;;;;57.47;19.50;;;;;;;;;;5014983;28;20422;-74
2024/02/17 06:27:30;;;;;;;58.37;22.47;;;;;;;;;;5001166;28;20453;-74
2024/02/17 06:29:56;;;;;;;67.50;26.70;;;;;;;;;;4995133;28;20891;-74
2024/02/17 06:32:22;;;;;;;58.23;21.90;;;;;;;;;;5013034;28;20456;-74
2024/02/17 06:34:48;;;;;;;70.63;25.43;;;;;;;;;;5013406;28;20429;-74
2024/02/17 06:37:15;;;;;;;54.50;21.23;;;;;;;;;;5008669;28;20505;-75
2024/02/17 06:39:41;;;;;;;57.47;23.87;;;;;;;;;;5010577;28;20429;-75
2024/02/17 06:42:07;;;;;;;52.33;21.63;;;;;;;;;;5014280;28;20437;-75
2024/02/17 06:44:33;;;;;;;64.00;24.60;;;;;;;;;;5014709;28;20486;-73
2024/02/17 06:46:59;;;;;;;60.70;23.00;;;;;;;;;;5014247;28;20494;-76
2024/02/17 06:49:25;;;;;;;64.37;24.50;;;;;;;;;;5013439;28;20933;-75
2024/02/17 06:51:51;;;;;;;69.60;24.93;;;;;;;;;;5014603;28;20934;-75
2024/02/17 06:54:17;;;;;;;69.63;27.23;;;;;;;;;;5015028;28;20433;-75
2024/02/17 06:56:43;;;;;;;63.13;23.47;;;;;;;;;;5014475;28;20469;-74
2024/02/17 06:59:09;;;;;;;56.40;23.00;;;;;;;;;;5014655;28;20788;-74
2024/02/17 07:01:35;;;;;;;69.13;25.57;;;;;;;;;;5007259;28;20540;-75
2024/02/17 07:04:01;;;;;;;71.93;25.90;;;;;;;;;;5001265;28;20840;-76
2024/02/17 07:06:27;;;;;;;63.07;23.47;;;;;;;;;;5013588;28;21024;-76
2024/02/17 07:08:53;;;;;;;63.97;22.80;;;;;;;;;;5006726;28;20940;-74
2024/02/17 07:11:19;;;;;;;50.10;21.83;;;;;;;;;;5010910;28;20438;-75
2024/02/17 07:13:45;;;;;;;55.83;22.53;;;;;;;;;;5008432;28;20913;-72
2024/02/17 07:16:11;;;;;;;53.77;21.77;;;;;;;;;;5013618;28;20560;-74
2024/02/17 07:18:41;;;;;;;55.60;22.43;;;;;;;;;;5013797;28;20458;-74
2024/02/17 07:21:07;;;;;;;55.33;22.27;;;;;;;;;;5013101;28;20438;-74
2024/02/17 07:23:33;;;;;;;54.63;22.93;;;;;;;;;;5005584;28;20410;-74
2024/02/17 07:26:00;;;;;;;46.80;19.70;;;;;;;;;;5009838;28;20614;-74
2024/02/17 07:28:26;;;;;;;43.93;19.10;;;;;;;;;;5006007;28;20425;-80
2024/02/17 07:30:52;;;;;;;42.00;18.37;;;;;;;;;;5014136;28;20426;-76
2024/02/17 07:33:18;;;;;;;43.30;17.60;;;;;;;;;;5009917;28;20576;-74
2024/02/17 07:35:47;;;;;;;35.07;16.00;;;;;;;;;;5013432;28;20455;-76
2024/02/17 07:38:13;;;;;;;42.50;17.60;;;;;;;;;;5013664;28;20473;-76
2024/02/17 07:40:39;;;;;;;37.63;15.67;;;;;;;;;;5010403;28;20458;-74
2024/02/17 07:43:05;;;;;;;39.97;16.13;;;;;;;;;;5009147;28;20501;-74
2024/02/17 07:45:31;;;;;;;35.17;17.10;;;;;;;;;;5012665;28;20457;-73
2024/02/17 07:47:57;;;;;;;31.03;14.60;;;;;;;;;;5013255;28;20406;-73
2024/02/17 07:50:23;;;;;;;40.10;15.53;;;;;;;;;;5012947;28;20406;-73
2024/02/17 07:52:49;;;;;;;30.50;14.40;;;;;;;;;;5013058;28;20831;-74
2024/02/17 07:55:15;;;;;;;32.97;14.40;;;;;;;;;;5013131;28;20417;-74
2024/02/17 07:57:41;;;;;;;37.80;16.40;;;;;;;;;;5013276;28;20475;-74
2024/02/17 08:00:07;;;;;;;27.03;14.33;;;;;;;;;;5013188;28;20501;-74
2024/02/17 08:02:33;;;;;;;34.30;16.70;;;;;;;;;;5011632;28;20586;-74
2024/02/17 08:04:59;;;;;;;26.87;13.47;;;;;;;;;;5013015;28;21015;-74
2024/02/17 08:07:26;;;;;;;26.97;14.43;;;;;;;;;;5012907;28;20555;-74
2024/02/17 08:09:51;;;;;;;29.90;13.43;;;;;;;;;;5011894;28;20766;-74
2024/02/17 08:12:17;;;;;;;27.77;15.03;;;;;;;;;;5012830;28;20425;-74
2024/02/17 08:14:43;;;;;;;34.40;15.43;;;;;;;;;;5012954;28;20519;-74
2024/02/17 08:17:09;;;;;;;30.40;14.67;;;;;;;;;;5012866;28;20406;-74
2024/02/17 08:19:35;;;;;;;30.27;13.60;;;;;;;;;;5013041;28;20779;-74
2024/02/17 08:22:02;;;;;;;29.03;15.20;;;;;;;;;;5011728;28;20792;-73
2024/02/17 08:24:28;;;;;;;28.33;14.33;;;;;;;;;;5013239;28;20414;-74
2024/02/17 08:26:54;;;;;;;31.13;14.53;;;;;;;;;;5013027;28;20462;-74
2024/02/17 08:29:20;;;;;;;29.73;14.07;;;;;;;;;;5012458;28;20429;-74
2024/02/17 08:31:50;;;;;;;28.10;13.67;;;;;;;;;;5013244;28;20437;-75
2024/02/17 08:34:16;;;;;;;33.60;14.10;;;;;;;;;;5012018;28;20566;-73
2024/02/17 08:36:42;;;;;;;26.27;13.20;;;;;;;;;;5011946;28;20937;-74
2024/02/17 08:39:09;;;;;;;27.40;14.03;;;;;;;;;;5013358;28;20777;-74
2024/02/17 08:41:35;;;;;;;25.17;12.97;;;;;;;;;;5012706;28;20540;-75
2024/02/17 08:44:01;;;;;;;26.40;13.33;;;;;;;;;;5012041;28;20426;-72
2024/02/17 08:46:27;;;;;;;31.70;14.63;;;;;;;;;;5013111;28;20816;-73
2024/02/17 08:48:53;;;;;;;30.23;15.23;;;;;;;;;;5013964;28;20472;-73
2024/02/17 08:51:19;;;;;;;30.73;14.50;;;;;;;;;;5013307;28;20484;-74
2024/02/17 08:53:45;;;;;;;24.80;14.00;;;;;;;;;;5013421;28;20893;-74
2024/02/17 08:56:10;;;;;;;26.90;12.90;;;;;;;;;;5012704;28;20413;-74
2024/02/17 08:58:36;;;;;;;26.87;12.67;;;;;;;;;;5015694;28;20935;-74
2024/02/17 09:01:02;;;;;;;27.80;12.40;;;;;;;;;;5016268;28;20945;-74
2024/02/17 09:03:30;;;;;;;26.83;12.60;;;;;;;;;;5015480;28;20850;-74
2024/02/17 09:05:55;;;;;;;27.10;14.00;;;;;;;;;;5017084;28;20979;-74
2024/02/17 09:08:21;;;;;;;23.53;12.30;;;;;;;;;;5017074;28;20497;-74
2024/02/17 09:10:47;;;;;;;25.70;12.00;;;;;;;;;;5016716;28;20441;-74
2024/02/17 09:13:13;;;;;;;32.30;13.67;;;;;;;;;;5016796;28;20900;-74
2024/02/17 09:15:39;;;;;;;29.47;14.30;;;;;;;;;;5016576;28;20460;-74
2024/02/17 09:18:05;;;;;;;29.70;14.90;;;;;;;;;;5017051;28;20446;-74
2024/02/17 09:20:31;;;;;;;23.90;12.90;;;;;;;;;;5017261;28;20441;-74
2024/02/17 09:22:57;;;;;;;30.27;14.30;;;;;;;;;;5016841;28;20410;-73
2024/02/17 09:25:23;;;;;;;27.73;14.70;;;;;;;;;;5016297;28;20428;-74
2024/02/17 09:27:49;;;;;;;24.73;14.23;;;;;;;;;;5016352;28;20431;-74
2024/02/17 09:30:15;;;;;;;26.03;12.97;;;;;;;;;;5016296;28;20418;-73
2024/02/17 09:32:41;;;;;;;25.23;12.40;;;;;;;;;;5016067;28;20438;-73
2024/02/17 09:35:07;;;;;;;25.57;12.37;;;;;;;;;;5016171;28;20453;-74
2024/02/17 09:37:33;;;;;;;25.90;13.67;;;;;;;;;;5015602;28;20410;-74
2024/02/17 09:39:59;;;;;;;24.50;13.03;;;;;;;;;;5015910;28;20977;-74
2024/02/17 09:42:25;;;;;;;30.27;12.90;;;;;;;;;;5006742;28;20616;-73
2024/02/17 09:44:52;;;;;;;25.63;12.40;;;;;;;;;;5015673;28;20442;-74
2024/02/17 09:47:18;;;;;;;26.23;13.37;;;;;;;;;;5014687;28;21027;-73
2024/02/17 09:49:44;;;;;;;29.83;14.47;;;;;;;;;;5015810;28;20441;-73
2024/02/17 09:52:10;;;;;;;24.90;13.17;;;;;;;;;;5014191;28;20492;-73
2024/02/17 09:54:38;;;;;;;28.87;13.30;;;;;;;;;;5015950;28;20755;-73
2024/02/17 09:57:04;;;;;;;25.63;12.80;;;;;;;;;;5016137;28;20440;-74
2024/02/17 09:59:30;;;;;;;25.67;11.60;;;;;;;;;;5017085;28;20429;-74
2024/02/17 10:01:57;;;;;;;31.87;11.70;;;;;;;;;;5017827;28;20457;-74
2024/02/17 10:04:23;;;;;;;23.80;12.90;;;;;;;;;;5017906;28;20420;-73
2024/02/17 10:07:03;;;;;;;24.40;12.40;;;;;;;;;;5017637;28;20965;-74
2024/02/17 10:09:30;;;;;;;21.97;11.50;;;;;;;;;;5016676;28;20557;-73
2024/02/17 10:11:56;;;;;;;24.37;11.80;;;;;;;;;;5015778;28;20434;-74
2024/02/17 10:14:27;;;;;;;23.23;11.47;;;;;;;;;;5013804;28;20793;-74
2024/02/17 10:16:59;;;;;;;23.97;11.73;;;;;;;;;;5015515;28;20410;-74
2024/02/17 10:19:25;;;;;;;20.27;12.43;;;;;;;;;;5015160;28;20406;-74
2024/02/17 10:21:51;;;;;;;20.90;11.50;;;;;;;;;;5014845;28;20430;-74
2024/02/17 10:24:20;;;;;;;25.10;12.60;;;;;;;;;;5015184;28;20465;-74
2024/02/17 10:26:50;;;;;;;25.10;12.20;;;;;;;;;;5014884;28;20458;-74
2024/02/17 10:29:16;;;;;;;24.73;12.10;;;;;;;;;;5015182;28;20956;-74
2024/02/17 10:31:43;;;;;;;26.30;13.00;;;;;;;;;;5015004;28;20965;-74
2024/02/17 10:34:12;;;;;;;21.83;11.60;;;;;;;;;;5015170;28;20410;-74
2024/02/17 10:36:38;;;;;;;22.73;11.10;;;;;;;;;;5015740;28;20418;-74
2024/02/17 10:39:05;;;;;;;27.93;13.30;;;;;;;;;;5015188;28;20413;-74
2024/02/17 10:41:31;;;;;;;26.60;12.57;;;;;;;;;;5015023;28;20528;-74
2024/02/17 10:43:57;;;;;;;21.67;10.73;;;;;;;;;;5013765;28;20501;-74
2024/02/17 10:46:26;;;;;;;22.67;11.37;;;;;;;;;;5015772;28;20517;-74
2024/02/17 10:49:10;;;;;;;23.03;11.13;;;;;;;;;;5016613;28;20910;-75
2024/02/17 10:51:55;;;;;;;20.27;10.87;;;;;;;;;;5019486;28;20506;-73
2024/02/17 10:54:26;;;;;;;18.10;10.40;;;;;;;;;;5015770;28;20413;-74
2024/02/17 10:56:53;;;;;;;17.90;10.40;;;;;;;;;;5015048;28;20434;-74
2024/02/17 10:59:21;;;;;;;20.03;10.47;;;;;;;;;;5014550;28;20438;-74
2024/02/17 11:01:47;;;;;;;14.33;9.13;;;;;;;;;;5014178;28;20477;-74
2024/02/17 11:04:13;;;;;;;18.17;9.83;;;;;;;;;;5017403;28;20497;-74
2024/02/17 11:06:41;;;;;;;19.43;10.00;;;;;;;;;;5016542;28;20556;-74
2024/02/17 11:09:07;;;;;;;18.60;9.50;;;;;;;;;;5014660;28;20445;-74
2024/02/17 11:11:34;;;;;;;20.20;10.57;;;;;;;;;;5013844;28;20433;-74
2024/02/17 11:14:20;;;;;;;22.10;11.10;;;;;;;;;;5014524;28;20410;-74
2024/02/17 11:16:46;;;;;;;20.53;12.43;;;;;;;;;;5015715;28;20446;-74
2024/02/17 11:19:12;;;;;;;20.73;12.10;;;;;;;;;;5016175;28;20768;-74
2024/02/17 11:21:40;;;;;;;23.33;11.43;;;;;;;;;;5013278;28;20438;-74
2024/02/17 11:24:12;;;;;;;19.80;9.70;;;;;;;;;;5015553;28;20497;-74
2024/02/17 11:26:38;;;;;;;17.37;10.40;;;;;;;;;;5016049;28;20563;-74
2024/02/17 11:29:05;;;;;;;14.30;8.53;;;;;;;;;;5016345;28;20476;-74
2024/02/17 11:31:31;;;;;;;19.90;9.70;;;;;;;;;;5014901;28;20923;-74
2024/02/17 11:34:04;;;;;;;15.33;8.10;;;;;;;;;;5015009;28;20418;-74
2024/02/17 11:36:33;;;;;;;14.20;8.37;;;;;;;;;;5013929;28;20848;-75
2024/02/17 11:39:00;;;;;;;22.57;9.80;;;;;;;;;;5013859;28;20415;-75
2024/02/17 11:41:27;;;;;;;18.80;8.60;;;;;;;;;;5013098;28;20967;-74
2024/02/17 11:43:54;;;;;;;24.00;10.90;;;;;;;;;;5010310;28;20441;-74
2024/02/17 11:46:20;;;;;;;20.00;9.93;;;;;;;;;;5013377;28;20454;-74
2024/02/17 11:48:46;;;;;;;19.53;9.70;;;;;;;;;;5011299;28;20432;-74
2024/02/17 11:51:23;;;;;;;17.13;9.80;;;;;;;;;;5017021;28;20438;-74
2024/02/17 11:53:50;;;;;;;19.60;8.47;;;;;;;;;;5015410;28;20417;-74
2024/02/17 11:56:16;;;;;;;16.03;9.10;;;;;;;;;;5016425;28;20417;-74
2024/02/17 11:58:43;;;;;;;16.60;8.57;;;;;;;;;;5015147;28;20448;-74
2024/02/17 12:01:11;;;;;;;14.10;7.60;;;;;;;;;;5014151;28;20877;-74
2024/02/17 12:03:38;;;;;;;16.70;7.13;;;;;;;;;;5013177;28;20505;-73
2024/02/17 12:06:06;;;;;;;14.13;6.93;;;;;;;;;;5012961;28;20494;-74
2024/02/17 12:08:32;;;;;;;16.00;8.03;;;;;;;;;;5015007;28;20505;-74
2024/02/17 12:10:59;;;;;;;15.73;8.03;;;;;;;;;;5016152;28;20542;-73
2024/02/17 12:13:26;;;;;;;14.33;7.47;;;;;;;;;;5037835;22;20512;-76
2024/02/17 12:15:52;;;;;;;10.27;7.13;;;;;;;;;;5014690;28;20410;-74
2024/02/17 12:18:18;;;;;;;10.47;7.03;;;;;;;;;;5013592;28;20422;-74
2024/02/17 12:20:45;;;;;;;19.53;8.27;;;;;;;;;;5012914;28;20769;-75
2024/02/17 12:23:11;;;;;;;12.47;7.30;;;;;;;;;;5010762;28;20441;-74
2024/02/17 12:25:40;;;;;;;13.33;7.47;;;;;;;;;;5011957;28;20966;-75
2024/02/17 12:28:07;;;;;;;11.33;6.20;;;;;;;;;;5012027;28;20471;-75
2024/02/17 12:30:39;;;;;;;11.10;6.37;;;;;;;;;;5012006;28;20410;-75
2024/02/17 12:33:11;;;;;;;14.40;7.20;;;;;;;;;;5011985;28;20414;-75
2024/02/17 12:35:43;;;;;;;11.97;5.83;;;;;;;;;;5010875;28;20422;-75
2024/02/17 12:38:10;;;;;;;6.90;4.57;;;;;;;;;;5012087;28;20406;-75
2024/02/17 12:40:36;;;;;;;11.07;5.10;;;;;;;;;;5010525;28;20484;-75
2024/02/17 12:43:03;;;;;;;9.03;5.47;;;;;;;;;;5011838;28;20521;-75
2024/02/17 12:45:33;;;;;;;12.70;5.77;;;;;;;;;;5011824;28;20823;-75
2024/02/17 12:48:03;;;;;;;9.10;4.93;;;;;;;;;;5012192;28;20801;-75
2024/02/17 12:50:29;;;;;;;7.93;4.13;;;;;;;;;;5011621;28;20438;-75
2024/02/17 12:53:25;;;;;;;9.40;5.03;;;;;;;;;;5012216;28;20504;-75
2024/02/17 12:55:53;;;;;;;9.20;4.87;;;;;;;;;;5007044;28;20881;-75
2024/02/17 12:58:19;;;;;;;5.80;4.13;;;;;;;;;;5014541;28;20473;-75
2024/02/17 13:00:45;;;;;;;4.80;4.00;;;;;;;;;;5023333;28;20425;-75
2024/02/17 13:03:16;;;;;;;8.27;4.00;;;;;;;;;;5011720;28;20474;-75
2024/02/17 13:05:46;;;;;;;10.50;5.33;;;;;;;;;;5010229;28;20527;-75
2024/02/17 13:08:13;;;;;;;12.87;5.17;;;;;;;;;;5011832;28;20838;-75
2024/02/17 13:10:38;;;;;;;8.53;3.97;;;;;;;;;;5011830;28;20407;-73
2024/02/17 13:13:05;;;;;;;14.67;4.57;;;;;;;;;;5010568;28;20775;-75
2024/02/17 13:15:31;;;;;;;7.27;4.23;;;;;;;;;;5013077;28;20410;-75
2024/02/17 13:17:58;;;;;;;5.77;3.97;;;;;;;;;;5012122;28;20445;-74
2024/02/17 13:20:24;;;;;;;4.70;3.40;;;;;;;;;;5011020;28;20469;-75
2024/02/17 13:22:50;;;;;;;6.13;4.07;;;;;;;;;;5012226;28;20429;-74
2024/02/17 13:25:16;;;;;;;10.30;4.80;;;;;;;;;;5011991;28;20417;-75
2024/02/17 13:27:42;;;;;;;6.97;3.80;;;;;;;;;;5012022;28;20406;-75
2024/02/17 13:30:09;;;;;;;11.50;4.13;;;;;;;;;;5012546;28;20406;-74
2024/02/17 13:32:45;;;;;;;11.27;4.83;;;;;;;;;;5011997;28;20414;-75
2024/02/17 13:35:11;;;;;;;12.80;4.40;;;;;;;;;;5012783;28;20409;-74
2024/02/17 13:37:37;;;;;;;6.00;3.83;;;;;;;;;;5012512;28;20398;-75
2024/02/17 13:40:04;;;;;;;7.00;3.93;;;;;;;;;;5012134;28;20492;-74
2024/02/17 13:42:30;;;;;;;7.10;3.47;;;;;;;;;;5009196;28;20772;-75
2024/02/17 13:44:56;;;;;;;6.40;3.63;;;;;;;;;;5024903;28;20954;-75
2024/02/17 13:47:26;;;;;;;12.80;4.47;;;;;;;;;;5035362;28;20542;-75
2024/02/17 13:49:52;;;;;;;7.43;3.73;;;;;;;;;;5039775;28;20748;-75
2024/02/17 13:52:18;;;;;;;10.50;4.90;;;;;;;;;;5050703;28;20416;-75
2024/02/17 13:54:44;;;;;;;6.93;3.30;;;;;;;;;;5048971;28;20413;-75
2024/02/17 13:57:10;;;;;;;5.17;3.80;;;;;;;;;;5046567;28;20419;-75
2024/02/17 13:59:36;;;;;;;6.97;3.63;;;;;;;;;;5036423;28;20429;-75
2024/02/17 14:02:03;;;;;;;12.90;3.90;;;;;;;;;;5037512;28;20496;-75
2024/02/17 14:04:29;;;;;;;10.83;4.20;;;;;;;;;;5036478;28;20433;-75
2024/02/17 14:06:55;;;;;;;7.20;4.20;;;;;;;;;;5037098;28;20471;-75
2024/02/17 14:09:21;;;;;;;7.63;3.80;;;;;;;;;;5039576;28;20405;-75
2024/02/17 14:11:48;;;;;;;6.60;2.93;;;;;;;;;;5036004;28;20427;-75
2024/02/17 14:14:14;;;;;;;8.07;3.50;;;;;;;;;;5035625;28;20521;-75
2024/02/17 14:16:40;;;;;;;6.77;4.50;;;;;;;;;;5035824;28;20893;-75
2024/02/17 14:19:06;;;;;;;8.57;4.17;;;;;;;;;;5036924;28;20423;-75
2024/02/17 14:21:33;;;;;;;4.40;3.43;;;;;;;;;;5050046;28;20417;-75
2024/02/17 14:23:59;;;;;;;8.20;3.73;;;;;;;;;;5036550;28;20479;-75
2024/02/17 14:26:25;;;;;;;3.80;3.43;;;;;;;;;;5034920;28;20551;-75
2024/02/17 14:28:52;;;;;;;4.80;3.47;;;;;;;;;;5034916;28;20470;-75
2024/02/17 14:31:20;;;;;;;4.83;3.53;;;;;;;;;;5034131;28;20853;-75
2024/02/17 14:33:46;;;;;;;8.33;3.87;;;;;;;;;;5036010;28;20441;-75
2024/02/17 14:36:12;;;;;;;7.83;3.83;;;;;;;;;;5034389;28;20419;-75
2024/02/17 14:38:38;;;;;;;6.73;3.40;;;;;;;;;;5034494;28;20444;-75
2024/02/17 14:41:04;;;;;;;7.53;3.97;;;;;;;;;;5033943;28;20750;-75
2024/02/17 14:43:32;;;;;;;4.23;2.57;;;;;;;;;;5033500;28;20428;-75
2024/02/17 14:45:58;;;;;;;6.40;3.60;;;;;;;;;;5036408;28;20526;-75
2024/02/17 14:48:24;;;;;;;5.80;3.53;;;;;;;;;;5034883;28;20413;-75
2024/02/17 14:50:50;;;;;;;6.40;3.10;;;;;;;;;;5032379;28;20451;-75
2024/02/17 14:53:16;;;;;;;7.57;3.90;;;;;;;;;;5033708;28;20429;-75
2024/02/17 14:55:42;;;;;;;11.20;4.53;;;;;;;;;;5033472;28;20441;-75
2024/02/17 14:58:08;;;;;;;6.83;4.50;;;;;;;;;;5034466;28;20409;-74
2024/02/17 15:00:34;;;;;;;9.53;3.70;;;;;;;;;;5034045;28;20532;-74
2024/02/17 15:03:00;;;;;;;6.73;3.90;;;;;;;;;;5034294;28;20435;-75
2024/02/17 15:05:27;;;;;;;6.00;4.10;;;;;;;;;;5041831;28;20429;-75
2024/02/17 15:07:53;;;;;;;7.80;3.10;;;;;;;;;;5044869;28;20461;-75
2024/02/17 15:10:19;;;;;;;7.30;3.70;;;;;;;;;;5040491;28;20467;-75
2024/02/17 15:12:45;;;;;;;13.47;4.17;;;;;;;;;;5035384;28;20476;-75
2024/02/17 15:15:11;;;;;;;8.97;3.63;;;;;;;;;;5036687;28;20448;-74
2024/02/17 15:17:37;;;;;;;5.33;3.47;;;;;;;;;;5035265;28;20934;-74
2024/02/17 15:20:03;;;;;;;7.00;2.80;;;;;;;;;;5034171;28;20413;-74
2024/02/17 15:22:29;;;;;;;4.37;2.80;;;;;;;;;;5033568;28;20445;-74
2024/02/17 15:24:55;;;;;;;6.53;2.70;;;;;;;;;;5034905;28;20421;-75
2024/02/17 15:27:21;;;;;;;5.23;2.73;;;;;;;;;;5032327;28;20473;-75
2024/02/17 15:29:47;;;;;;;4.90;2.47;;;;;;;;;;5034186;28;20437;-75
2024/02/17 15:32:13;;;;;;;3.50;2.50;;;;;;;;;;5052120;28;20385;-75
2024/02/17 15:34:39;;;;;;;5.23;3.27;;;;;;;;;;5053279;28;20560;-75
2024/02/17 15:37:09;;;;;;;7.50;3.17;;;;;;;;;;5034164;28;20405;-75
2024/02/17 15:39:35;;;;;;;7.03;2.97;;;;;;;;;;5034636;28;20409;-75
2024/02/17 15:42:00;;;;;;;4.50;2.73;;;;;;;;;;5033406;28;20467;-75
2024/02/17 15:44:28;;;;;;;4.53;3.30;;;;;;;;;;5014904;28;20501;-75
2024/02/17 15:46:54;;;;;;;10.90;4.00;;;;;;;;;;5035674;28;20464;-75
2024/02/17 15:49:20;;;;;;;4.60;3.03;;;;;;;;;;5037172;28;20432;-75
2024/02/17 15:51:46;;;;;;;7.83;3.60;;;;;;;;;;5046682;28;20451;-75
2024/02/17 15:54:12;;;;;;;6.23;3.40;;;;;;;;;;5040594;28;20815;-75
2024/02/17 15:56:38;;;;;;;5.47;2.70;;;;;;;;;;5040978;28;20416;-75
2024/02/17 15:59:04;;;;;;;4.60;3.50;;;;;;;;;;5046826;28;20952;-75
2024/02/17 16:01:29;;;;;;;4.70;3.30;;;;;;;;;;5042925;28;20420;-75
2024/02/17 16:03:55;;;;;;;5.20;3.33;;;;;;;;;;5033867;28;20465;-75
2024/02/17 16:06:21;;;;;;;5.70;3.30;;;;;;;;;;5033245;28;20464;-75
2024/02/17 16:08:47;;;;;;;5.10;3.20;;;;;;;;;;5038814;28;20405;-75
2024/02/17 16:11:14;;;;;;;5.90;3.83;;;;;;;;;;5041306;28;20401;-74
2024/02/17 16:13:44;;;;;;;8.90;3.80;;;;;;;;;;5034464;28;20448;-75
2024/02/17 16:16:10;;;;;;;6.00;3.87;;;;;;;;;;5033561;28;20441;-75
2024/02/17 16:18:38;;;;;;;6.53;4.50;;;;;;;;;;5033178;28;20787;-75
2024/02/17 16:21:04;;;;;;;3.90;3.23;;;;;;;;;;5032435;28;20800;-75
2024/02/17 16:23:31;;;;;;;7.07;3.53;;;;;;;;;;5032393;28;20884;-75
2024/02/17 16:25:56;;;;;;;5.97;3.77;;;;;;;;;;5032952;28;20535;-75
2024/02/17 16:28:22;;;;;;;3.50;2.73;;;;;;;;;;5033089;28;20896;-75
2024/02/17 16:30:51;;;;;;;3.17;2.80;;;;;;;;;;5033113;28;20793;-76
2024/02/17 16:33:17;;;;;;;5.23;2.90;;;;;;;;;;5033208;28;20425;-75
2024/02/17 16:35:43;;;;;;;8.50;3.70;;;;;;;;;;5033963;28;20404;-75
2024/02/17 16:38:09;;;;;;;8.90;3.90;;;;;;;;;;5034367;28;20429;-75
2024/02/17 16:40:37;;;;;;;6.03;3.30;;;;;;;;;;5030681;28;20471;-75
2024/02/17 16:43:03;;;;;;;5.10;3.40;;;;;;;;;;5032676;28;20429;-75
2024/02/17 16:45:31;;;;;;;13.33;3.87;;;;;;;;;;5032746;28;20552;-75
2024/02/17 16:47:57;;;;;;;12.23;4.67;;;;;;;;;;5032706;28;20412;-75
2024/02/17 16:50:23;;;;;;;9.47;4.10;;;;;;;;;;5032642;28;20492;-75
2024/02/17 16:52:49;;;;;;;9.73;4.07;;;;;;;;;;5030963;28;20437;-75
2024/02/17 16:55:15;;;;;;;6.10;4.13;;;;;;;;;;5032759;28;20433;-75
2024/02/17 16:57:41;;;;;;;6.47;4.40;;;;;;;;;;5031811;28;20783;-75
2024/02/17 17:00:07;;;;;;;8.57;3.97;;;;;;;;;;5032340;28;20499;-73
2024/02/17 17:02:33;;;;;;;8.13;3.90;;;;;;;;;;5031571;28;20455;-74
2024/02/17 17:05:00;;;;;;;11.13;4.23;;;;;;;;;;5031494;28;20437;-75
2024/02/17 17:07:26;;;;;;;8.83;4.10;;;;;;;;;;5031165;28;20829;-72
2024/02/17 17:09:52;;;;;;;5.00;3.40;;;;;;;;;;5030916;28;20413;-73
2024/02/17 17:12:18;;;;;;;10.33;5.00;;;;;;;;;;5030529;28;20409;-77
2024/02/17 17:14:44;;;;;;;7.93;3.60;;;;;;;;;;5031998;28;20409;-72
2024/02/17 17:17:10;;;;;;;9.90;4.87;;;;;;;;;;5031543;28;20424;-72
2024/02/17 17:19:36;;;;;;;7.13;4.37;;;;;;;;;;5035609;28;20409;-75
2024/02/17 17:22:02;;;;;;;7.30;3.90;;;;;;;;;;5034080;28;20928;-74
2024/02/17 17:24:28;;;;;;;9.43;4.30;;;;;;;;;;5034883;28;20951;-72
2024/02/17 17:26:54;;;;;;;8.50;4.07;;;;;;;;;;5033982;28;20461;-73
2024/02/17 17:29:20;;;;;;;9.50;4.03;;;;;;;;;;5034193;28;20410;-73
2024/02/17 17:31:49;;;;;;;10.17;5.30;;;;;;;;;;5035537;28;20409;-74
2024/02/17 17:34:15;;;;;;;6.33;4.00;;;;;;;;;;5036114;28;20803;-74
2024/02/17 17:36:43;;;;;;;8.50;5.00;;;;;;;;;;5036271;28;20780;-73
2024/02/17 17:39:09;;;;;;;7.20;4.50;;;;;;;;;;5036191;28;20483;-75
2024/02/17 17:41:36;;;;;;;8.50;4.73;;;;;;;;;;5035255;28;20416;-73
2024/02/17 17:44:02;;;;;;;23.00;7.23;;;;;;;;;;5031230;28;20805;-73
2024/02/17 17:46:28;;;;;;;12.80;5.30;;;;;;;;;;5003840;28;20977;-72
2024/02/17 17:48:55;;;;;;;15.30;7.27;;;;;;;;;;5020390;28;20428;-73
2024/02/17 17:51:21;;;;;;;12.60;6.77;;;;;;;;;;5011254;28;20471;-73
2024/02/17 17:53:47;;;;;;;15.73;8.90;;;;;;;;;;4995755;28;20433;-74
2024/02/17 17:56:13;;;;;;;19.50;8.40;;;;;;;;;;5000066;28;20422;-73
2024/02/17 17:58:40;;;;;;;13.03;6.90;;;;;;;;;;4996041;28;20418;-73
2024/02/17 18:01:06;;;;;;;9.70;6.37;;;;;;;;;;4994637;28;20860;-73
2024/02/17 18:03:32;;;;;;;10.10;6.27;;;;;;;;;;4995195;28;20478;-73
2024/02/17 18:05:58;;;;;;;11.33;6.40;;;;;;;;;;4997151;28;20485;-74
2024/02/17 18:08:26;;;;;;;12.10;5.87;;;;;;;;;;4995556;28;20422;-73
2024/02/17 18:10:55;;;;;;;9.03;5.27;;;;;;;;;;5007573;28;20415;-73
2024/02/17 18:13:23;;;;;;;13.30;7.10;;;;;;;;;;5008293;28;20956;-74
2024/02/17 18:15:49;;;;;;;16.63;8.80;;;;;;;;;;5003345;28;20490;-74
2024/02/17 18:18:15;;;;;;;21.43;8.27;;;;;;;;;;4997341;28;20878;-74
2024/02/17 18:20:41;;;;;;;14.00;7.27;;;;;;;;;;4996823;28;20483;-74
2024/02/17 18:23:07;;;;;;;16.43;7.80;;;;;;;;;;4997090;28;20478;-74
2024/02/17 18:25:33;;;;;;;21.00;8.87;;;;;;;;;;4995432;28;20419;-74
2024/02/17 18:27:59;;;;;;;18.17;8.53;;;;;;;;;;4997718;28;20411;-74
2024/02/17 18:30:25;;;;;;;21.23;6.87;;;;;;;;;;4996846;28;20841;-74
2024/02/17 18:32:51;;;;;;;12.50;7.07;;;;;;;;;;4996989;28;20431;-74
2024/02/17 18:35:17;;;;;;;13.93;6.80;;;;;;;;;;4997472;28;20925;-74
2024/02/17 18:37:43;;;;;;;11.03;6.80;;;;;;;;;;4996670;28;20910;-73
2024/02/17 18:40:09;;;;;;;12.17;7.53;;;;;;;;;;4996958;28;20419;-74
2024/02/17 18:42:35;;;;;;;12.30;7.13;;;;;;;;;;4998826;28;20582;-74
2024/02/17 18:45:02;;;;;;;14.80;7.67;;;;;;;;;;4998660;28;20415;-74
2024/02/17 18:47:28;;;;;;;15.90;8.73;;;;;;;;;;4996474;28;20463;-75
2024/02/17 18:49:55;;;;;;;21.00;10.57;;;;;;;;;;4994835;28;20427;-74
2024/02/17 18:52:22;;;;;;;26.90;10.47;;;;;;;;;;4996918;28;20430;-74
2024/02/17 18:54:48;;;;;;;17.90;8.57;;;;;;;;;;4996310;28;20403;-75
2024/02/17 18:57:14;;;;;;;15.97;7.87;;;;;;;;;;4996370;28;20433;-75
2024/02/17 18:59:40;;;;;;;19.87;8.10;;;;;;;;;;4994746;28;20805;-75
2024/02/17 19:02:10;;;;;;;14.70;8.17;;;;;;;;;;4996949;28;20418;-75
2024/02/17 19:04:36;;;;;;;16.83;8.57;;;;;;;;;;4996527;28;20435;-74
2024/02/17 19:07:02;;;;;;;21.17;10.37;;;;;;;;;;4995320;28;20498;-75
2024/02/17 19:09:29;;;;;;;13.50;7.73;;;;;;;;;;4996526;28;20470;-75
2024/02/17 19:11:56;;;;;;;15.83;7.90;;;;;;;;;;4996632;28;20506;-74
2024/02/17 19:14:23;;;;;;;19.50;9.50;;;;;;;;;;4995894;28;20950;-75
2024/02/17 19:16:48;;;;;;;19.17;8.60;;;;;;;;;;4995483;28;20969;-75
2024/02/17 19:19:14;;;;;;;19.40;8.70;;;;;;;;;;4995304;28;20450;-74
2024/02/17 19:21:40;;;;;;;23.07;8.53;;;;;;;;;;4995176;28;20506;-75
2024/02/17 19:24:06;;;;;;;16.70;8.53;;;;;;;;;;4995195;28;20439;-74
2024/02/17 19:26:33;;;;;;;16.47;8.23;;;;;;;;;;4995924;28;20459;-75
2024/02/17 19:28:59;;;;;;;38.43;11.53;;;;;;;;;;4995745;28;20859;-75
2024/02/17 19:31:25;;;;;;;27.33;13.47;;;;;;;;;;4995421;28;20493;-75
2024/02/17 19:33:51;;;;;;;28.80;13.33;;;;;;;;;;4994444;28;20454;-75
2024/02/17 19:36:17;;;;;;;23.43;12.77;;;;;;;;;;4994385;28;20488;-74
2024/02/17 19:38:43;;;;;;;22.20;11.90;;;;;;;;;;4993541;28;20926;-74
2024/02/17 19:41:10;;;;;;;22.27;10.23;;;;;;;;;;4997054;28;20422;-73
2024/02/17 19:43:37;;;;;;;19.03;10.77;;;;;;;;;;4996491;28;20438;-75
2024/02/17 19:46:03;;;;;;;20.73;10.77;;;;;;;;;;4994136;28;20466;-75
2024/02/17 19:48:32;;;;;;;22.90;11.10;;;;;;;;;;4996217;28;20423;-75
2024/02/17 19:50:58;;;;;;;19.83;10.87;;;;;;;;;;4994155;28;20445;-75
2024/02/17 19:53:24;;;;;;;20.90;11.33;;;;;;;;;;4994564;28;20437;-74
2024/02/17 19:55:50;;;;;;;24.07;12.70;;;;;;;;;;4994469;28;20819;-74
2024/02/17 19:58:16;;;;;;;27.03;11.90;;;;;;;;;;4995033;28;20439;-75
2024/02/17 20:00:42;;;;;;;25.37;10.90;;;;;;;;;;4993278;28;20419;-75
2024/02/17 20:03:08;;;;;;;25.60;11.90;;;;;;;;;;4995493;28;20859;-74
2024/02/17 20:05:35;;;;;;;29.60;13.63;;;;;;;;;;4995540;28;20411;-74
2024/02/17 20:08:02;;;;;;;20.83;11.23;;;;;;;;;;4995614;28;20445;-74
2024/02/17 20:10:29;;;;;;;24.40;10.70;;;;;;;;;;4995921;28;20415;-74
2024/02/17 20:12:55;;;;;;;26.00;13.50;;;;;;;;;;4994606;28;20545;-74
2024/02/17 20:15:21;;;;;;;33.03;14.50;;;;;;;;;;4994719;28;20422;-74
2024/02/17 20:17:47;;;;;;;27.30;16.10;;;;;;;;;;4994920;28;20430;-74
2024/02/17 20:20:15;;;;;;;33.17;15.13;;;;;;;;;;4993981;28;20415;-74
2024/02/17 20:22:41;;;;;;;33.10;13.23;;;;;;;;;;4994349;28;20443;-74
2024/02/17 20:25:07;;;;;;;27.13;13.67;;;;;;;;;;4994238;28;20429;-74
2024/02/17 20:27:33;;;;;;;43.43;17.80;;;;;;;;;;4995138;28;20559;-74